sensor_id;sensor_type;location;lat;lon;timestamp;P1;durP1;ratioP1;P2;durP2;ratioP2
82248;SDS011;71851;49.092;18.918;2023-12-20T00:01:58;71.68;;;37.15;;
82248;SDS011;71851;49.092;18.918;2023-12-20T00:04:58;76.28;;;36.72;;
82248;SDS011;71851;49.092;18.918;2023-12-20T00:07:58;84.32;;;38.45;;
82248;SDS011;71851;49.092;18.918;2023-12-20T00:10:59;70.43;;;34.10;;
82248;SDS011;71851;49.092;18.918;2023-12-20T00:13:59;42.75;;;22.40;;
82248;SDS011;71851;49.092;18.918;2023-12-20T00:17:00;36.72;;;18.70;;
82248;SDS011;71851;49.092;18.918;2023-12-20T00:20:00;30.88;;;15.70;;
82248;SDS011;71851;49.092;18.918;2023-12-20T00:23:00;52.50;;;26.45;;
82248;SDS011;71851;49.092;18.918;2023-12-20T00:26:01;54.13;;;26.52;;
82248;SDS011;71851;49.092;18.918;2023-12-20T00:29:01;66.60;;;29.77;;
82248;SDS011;71851;49.092;18.918;2023-12-20T00:32:02;64.85;;;33.13;;
82248;SDS011;71851;49.092;18.918;2023-12-20T00:35:03;61.40;;;31.85;;
82248;SDS011;71851;49.092;18.918;2023-12-20T00:38:07;61.47;;;30.52;;
82248;SDS011;71851;49.092;18.918;2023-12-20T00:41:08;62.65;;;28.27;;
82248;SDS011;71851;49.092;18.918;2023-12-20T00:44:09;62.03;;;28.73;;
82248;SDS011;71851;49.092;18.918;2023-12-20T00:47:09;51.63;;;27.52;;
82248;SDS011;71851;49.092;18.918;2023-12-20T00:50:10;57.97;;;28.42;;
82248;SDS011;71851;49.092;18.918;2023-12-20T00:53:10;51.58;;;26.83;;
82248;SDS011;71851;49.092;18.918;2023-12-20T00:56:11;50.75;;;25.90;;
82248;SDS011;71851;49.092;18.918;2023-12-20T00:59:11;50.72;;;26.98;;
82248;SDS011;71851;49.092;18.918;2023-12-20T01:02:11;46.25;;;25.52;;
82248;SDS011;71851;49.092;18.918;2023-12-20T01:05:12;46.45;;;23.20;;
82248;SDS011;71851;49.092;18.918;2023-12-20T01:08:12;38.95;;;21.48;;
82248;SDS011;71851;49.092;18.918;2023-12-20T01:11:13;44.53;;;22.42;;
82248;SDS011;71851;49.092;18.918;2023-12-20T01:14:13;33.42;;;17.35;;
82248;SDS011;71851;49.092;18.918;2023-12-20T01:17:13;35.05;;;18.25;;
82248;SDS011;71851;49.092;18.918;2023-12-20T01:20:14;39.72;;;18.88;;
82248;SDS011;71851;49.092;18.918;2023-12-20T01:23:15;32.80;;;16.08;;
82248;SDS011;71851;49.092;18.918;2023-12-20T01:26:15;40.70;;;16.90;;
82248;SDS011;71851;49.092;18.918;2023-12-20T01:29:16;35.33;;;16.30;;
82248;SDS011;71851;49.092;18.918;2023-12-20T01:32:17;40.30;;;16.33;;
82248;SDS011;71851;49.092;18.918;2023-12-20T01:35:17;31.42;;;15.02;;
82248;SDS011;71851;49.092;18.918;2023-12-20T01:38:18;29.55;;;13.10;;
82248;SDS011;71851;49.092;18.918;2023-12-20T01:41:19;20.05;;;11.20;;
82248;SDS011;71851;49.092;18.918;2023-12-20T01:44:20;21.70;;;11.30;;
82248;SDS011;71851;49.092;18.918;2023-12-20T01:47:20;16.45;;;8.07;;
82248;SDS011;71851;49.092;18.918;2023-12-20T01:50:22;16.25;;;8.50;;
82248;SDS011;71851;49.092;18.918;2023-12-20T01:53:23;21.83;;;9.52;;
82248;SDS011;71851;49.092;18.918;2023-12-20T01:56:25;22.60;;;9.30;;
82248;SDS011;71851;49.092;18.918;2023-12-20T01:59:28;22.63;;;10.05;;
82248;SDS011;71851;49.092;18.918;2023-12-20T02:02:29;23.38;;;10.30;;
82248;SDS011;71851;49.092;18.918;2023-12-20T02:05:31;24.17;;;9.23;;
82248;SDS011;71851;49.092;18.918;2023-12-20T02:08:33;25.70;;;11.50;;
82248;SDS011;71851;49.092;18.918;2023-12-20T02:11:34;23.35;;;10.60;;
82248;SDS011;71851;49.092;18.918;2023-12-20T02:14:37;25.08;;;10.52;;
82248;SDS011;71851;49.092;18.918;2023-12-20T02:17:38;21.98;;;10.05;;
82248;SDS011;71851;49.092;18.918;2023-12-20T02:20:39;18.20;;;8.95;;
82248;SDS011;71851;49.092;18.918;2023-12-20T02:23:40;24.13;;;10.05;;
82248;SDS011;71851;49.092;18.918;2023-12-20T02:26:40;27.23;;;12.80;;
82248;SDS011;71851;49.092;18.918;2023-12-20T02:29:41;18.45;;;9.65;;
82248;SDS011;71851;49.092;18.918;2023-12-20T02:32:41;20.17;;;11.10;;
82248;SDS011;71851;49.092;18.918;2023-12-20T02:35:42;17.83;;;9.13;;
82248;SDS011;71851;49.092;18.918;2023-12-20T02:38:42;15.77;;;8.63;;
82248;SDS011;71851;49.092;18.918;2023-12-20T02:41:42;16.10;;;8.25;;
82248;SDS011;71851;49.092;18.918;2023-12-20T02:44:43;15.02;;;9.48;;
82248;SDS011;71851;49.092;18.918;2023-12-20T02:47:43;18.98;;;10.82;;
82248;SDS011;71851;49.092;18.918;2023-12-20T02:50:45;22.27;;;12.60;;
82248;SDS011;71851;49.092;18.918;2023-12-20T02:53:46;19.52;;;11.40;;
82248;SDS011;71851;49.092;18.918;2023-12-20T02:56:47;22.75;;;11.65;;
82248;SDS011;71851;49.092;18.918;2023-12-20T02:59:48;20.00;;;11.27;;
82248;SDS011;71851;49.092;18.918;2023-12-20T03:02:48;22.70;;;10.77;;
82248;SDS011;71851;49.092;18.918;2023-12-20T03:05:49;18.08;;;10.73;;
82248;SDS011;71851;49.092;18.918;2023-12-20T03:08:49;19.55;;;9.82;;
82248;SDS011;71851;49.092;18.918;2023-12-20T03:11:49;20.02;;;10.75;;
82248;SDS011;71851;49.092;18.918;2023-12-20T03:14:50;18.73;;;10.32;;
82248;SDS011;71851;49.092;18.918;2023-12-20T03:17:50;15.32;;;9.15;;
82248;SDS011;71851;49.092;18.918;2023-12-20T03:20:51;17.90;;;9.85;;
82248;SDS011;71851;49.092;18.918;2023-12-20T03:23:51;19.67;;;10.10;;
82248;SDS011;71851;49.092;18.918;2023-12-20T03:26:52;22.35;;;10.88;;
82248;SDS011;71851;49.092;18.918;2023-12-20T03:29:52;24.10;;;11.38;;
82248;SDS011;71851;49.092;18.918;2023-12-20T03:32:53;22.83;;;10.98;;
82248;SDS011;71851;49.092;18.918;2023-12-20T03:35:53;20.15;;;10.85;;
82248;SDS011;71851;49.092;18.918;2023-12-20T03:38:54;20.40;;;10.95;;
82248;SDS011;71851;49.092;18.918;2023-12-20T03:41:55;20.45;;;10.48;;
82248;SDS011;71851;49.092;18.918;2023-12-20T03:44:55;18.70;;;10.90;;
82248;SDS011;71851;49.092;18.918;2023-12-20T03:47:56;16.48;;;9.45;;
82248;SDS011;71851;49.092;18.918;2023-12-20T03:50:57;18.38;;;10.05;;
82248;SDS011;71851;49.092;18.918;2023-12-20T03:53:57;22.40;;;11.98;;
82248;SDS011;71851;49.092;18.918;2023-12-20T03:56:58;27.45;;;14.63;;
82248;SDS011;71851;49.092;18.918;2023-12-20T03:59:59;25.17;;;13.57;;
82248;SDS011;71851;49.092;18.918;2023-12-20T04:02:59;33.33;;;16.30;;
82248;SDS011;71851;49.092;18.918;2023-12-20T04:06:00;32.42;;;16.25;;
82248;SDS011;71851;49.092;18.918;2023-12-20T04:09:00;25.55;;;13.52;;
82248;SDS011;71851;49.092;18.918;2023-12-20T04:12:00;25.35;;;14.02;;
82248;SDS011;71851;49.092;18.918;2023-12-20T04:15:01;29.88;;;14.63;;
82248;SDS011;71851;49.092;18.918;2023-12-20T04:18:03;33.75;;;16.50;;
82248;SDS011;71851;49.092;18.918;2023-12-20T04:21:04;26.05;;;12.07;;
82248;SDS011;71851;49.092;18.918;2023-12-20T04:24:04;28.38;;;12.48;;
82248;SDS011;71851;49.092;18.918;2023-12-20T04:27:05;27.92;;;12.15;;
82248;SDS011;71851;49.092;18.918;2023-12-20T04:30:06;25.90;;;13.15;;
82248;SDS011;71851;49.092;18.918;2023-12-20T04:33:07;24.10;;;11.68;;
82248;SDS011;71851;49.092;18.918;2023-12-20T04:36:08;22.58;;;11.73;;
82248;SDS011;71851;49.092;18.918;2023-12-20T04:39:09;22.23;;;11.98;;
82248;SDS011;71851;49.092;18.918;2023-12-20T04:42:10;25.77;;;13.75;;
82248;SDS011;71851;49.092;18.918;2023-12-20T04:45:10;31.58;;;14.25;;
82248;SDS011;71851;49.092;18.918;2023-12-20T04:48:13;26.83;;;13.85;;
82248;SDS011;71851;49.092;18.918;2023-12-20T04:51:13;28.35;;;15.40;;
82248;SDS011;71851;49.092;18.918;2023-12-20T04:54:13;33.00;;;18.02;;
82248;SDS011;71851;49.092;18.918;2023-12-20T04:57:14;33.25;;;18.00;;
82248;SDS011;71851;49.092;18.918;2023-12-20T05:00:15;27.92;;;13.85;;
82248;SDS011;71851;49.092;18.918;2023-12-20T05:03:16;27.30;;;13.32;;
82248;SDS011;71851;49.092;18.918;2023-12-20T05:06:16;29.83;;;13.90;;
82248;SDS011;71851;49.092;18.918;2023-12-20T05:09:17;26.15;;;14.25;;
82248;SDS011;71851;49.092;18.918;2023-12-20T05:12:17;27.40;;;13.75;;
82248;SDS011;71851;49.092;18.918;2023-12-20T05:15:18;25.23;;;14.07;;
82248;SDS011;71851;49.092;18.918;2023-12-20T05:18:18;24.83;;;13.63;;
82248;SDS011;71851;49.092;18.918;2023-12-20T05:21:20;30.73;;;15.55;;
82248;SDS011;71851;49.092;18.918;2023-12-20T05:24:20;26.05;;;15.15;;
82248;SDS011;71851;49.092;18.918;2023-12-20T05:27:20;29.92;;;15.52;;
82248;SDS011;71851;49.092;18.918;2023-12-20T05:30:21;27.75;;;14.38;;
82248;SDS011;71851;49.092;18.918;2023-12-20T05:33:22;27.70;;;15.38;;
82248;SDS011;71851;49.092;18.918;2023-12-20T05:36:22;26.63;;;15.10;;
82248;SDS011;71851;49.092;18.918;2023-12-20T05:39:22;26.23;;;14.90;;
82248;SDS011;71851;49.092;18.918;2023-12-20T05:42:23;25.60;;;14.30;;
82248;SDS011;71851;49.092;18.918;2023-12-20T05:45:23;31.02;;;16.05;;
82248;SDS011;71851;49.092;18.918;2023-12-20T05:48:24;27.05;;;13.98;;
82248;SDS011;71851;49.092;18.918;2023-12-20T05:51:24;34.30;;;18.45;;
82248;SDS011;71851;49.092;18.918;2023-12-20T05:54:24;30.55;;;16.83;;
82248;SDS011;71851;49.092;18.918;2023-12-20T05:57:25;25.23;;;14.75;;
82248;SDS011;71851;49.092;18.918;2023-12-20T06:00:25;26.55;;;15.82;;
82248;SDS011;71851;49.092;18.918;2023-12-20T06:03:25;22.90;;;13.45;;
82248;SDS011;71851;49.092;18.918;2023-12-20T06:06:26;23.52;;;14.70;;
82248;SDS011;71851;49.092;18.918;2023-12-20T06:09:26;21.55;;;13.65;;
82248;SDS011;71851;49.092;18.918;2023-12-20T06:12:27;22.85;;;14.35;;
82248;SDS011;71851;49.092;18.918;2023-12-20T06:15:28;25.90;;;14.25;;
82248;SDS011;71851;49.092;18.918;2023-12-20T06:18:30;35.47;;;17.75;;
82248;SDS011;71851;49.092;18.918;2023-12-20T06:21:30;29.08;;;15.45;;
82248;SDS011;71851;49.092;18.918;2023-12-20T06:24:30;25.52;;;15.32;;
82248;SDS011;71851;49.092;18.918;2023-12-20T06:27:33;29.20;;;16.00;;
82248;SDS011;71851;49.092;18.918;2023-12-20T06:30:34;32.53;;;17.55;;
82248;SDS011;71851;49.092;18.918;2023-12-20T06:33:34;30.48;;;16.63;;
82248;SDS011;71851;49.092;18.918;2023-12-20T06:36:35;29.45;;;17.27;;
82248;SDS011;71851;49.092;18.918;2023-12-20T06:39:35;29.88;;;17.88;;
82248;SDS011;71851;49.092;18.918;2023-12-20T06:42:36;31.92;;;18.17;;
82248;SDS011;71851;49.092;18.918;2023-12-20T06:45:36;32.50;;;18.10;;
82248;SDS011;71851;49.092;18.918;2023-12-20T06:48:37;35.53;;;19.17;;
82248;SDS011;71851;49.092;18.918;2023-12-20T06:51:37;36.60;;;20.15;;
82248;SDS011;71851;49.092;18.918;2023-12-20T06:54:37;37.88;;;22.52;;
82248;SDS011;71851;49.092;18.918;2023-12-20T06:57:38;37.20;;;20.42;;
82248;SDS011;71851;49.092;18.918;2023-12-20T07:00:38;29.98;;;18.13;;
82248;SDS011;71851;49.092;18.918;2023-12-20T07:03:38;30.58;;;18.15;;
82248;SDS011;71851;49.092;18.918;2023-12-20T07:06:40;33.65;;;17.92;;
82248;SDS011;71851;49.092;18.918;2023-12-20T07:09:40;32.30;;;17.20;;
82248;SDS011;71851;49.092;18.918;2023-12-20T07:12:42;31.65;;;17.65;;
82248;SDS011;71851;49.092;18.918;2023-12-20T07:15:44;26.95;;;15.52;;
82248;SDS011;71851;49.092;18.918;2023-12-20T07:18:44;30.98;;;18.23;;
82248;SDS011;71851;49.092;18.918;2023-12-20T07:21:45;30.95;;;18.20;;
82248;SDS011;71851;49.092;18.918;2023-12-20T07:24:45;28.02;;;16.98;;
82248;SDS011;71851;49.092;18.918;2023-12-20T07:27:46;30.60;;;16.90;;
82248;SDS011;71851;49.092;18.918;2023-12-20T07:30:46;28.23;;;16.98;;
82248;SDS011;71851;49.092;18.918;2023-12-20T07:33:47;31.05;;;17.42;;
82248;SDS011;71851;49.092;18.918;2023-12-20T07:36:47;30.90;;;17.48;;
82248;SDS011;71851;49.092;18.918;2023-12-20T07:39:48;36.38;;;20.58;;
82248;SDS011;71851;49.092;18.918;2023-12-20T07:42:48;38.90;;;20.60;;
82248;SDS011;71851;49.092;18.918;2023-12-20T07:45:49;37.33;;;20.40;;
82248;SDS011;71851;49.092;18.918;2023-12-20T07:48:49;32.83;;;19.45;;
82248;SDS011;71851;49.092;18.918;2023-12-20T07:51:49;36.08;;;19.77;;
82248;SDS011;71851;49.092;18.918;2023-12-20T07:54:50;31.52;;;19.48;;
82248;SDS011;71851;49.092;18.918;2023-12-20T07:57:50;31.80;;;20.23;;
82248;SDS011;71851;49.092;18.918;2023-12-20T08:00:51;33.97;;;19.65;;
82248;SDS011;71851;49.092;18.918;2023-12-20T08:03:51;36.53;;;20.58;;
82248;SDS011;71851;49.092;18.918;2023-12-20T08:06:52;40.22;;;22.45;;
82248;SDS011;71851;49.092;18.918;2023-12-20T08:09:53;33.47;;;21.27;;
82248;SDS011;71851;49.092;18.918;2023-12-20T08:12:54;39.72;;;22.85;;
82248;SDS011;71851;49.092;18.918;2023-12-20T08:15:55;36.05;;;21.55;;
82248;SDS011;71851;49.092;18.918;2023-12-20T08:18:56;39.60;;;23.63;;
82248;SDS011;71851;49.092;18.918;2023-12-20T08:21:56;38.10;;;23.63;;
82248;SDS011;71851;49.092;18.918;2023-12-20T08:24:57;41.72;;;23.75;;
82248;SDS011;71851;49.092;18.918;2023-12-20T08:27:57;42.42;;;25.75;;
82248;SDS011;71851;49.092;18.918;2023-12-20T08:30:57;42.08;;;25.05;;
82248;SDS011;71851;49.092;18.918;2023-12-20T08:33:58;41.33;;;24.75;;
82248;SDS011;71851;49.092;18.918;2023-12-20T08:36:58;39.55;;;25.08;;
82248;SDS011;71851;49.092;18.918;2023-12-20T08:40:00;36.83;;;23.25;;
82248;SDS011;71851;49.092;18.918;2023-12-20T08:43:00;42.60;;;25.88;;
82248;SDS011;71851;49.092;18.918;2023-12-20T08:46:01;40.53;;;24.70;;
82248;SDS011;71851;49.092;18.918;2023-12-20T08:49:02;40.92;;;25.55;;
82248;SDS011;71851;49.092;18.918;2023-12-20T08:52:03;32.70;;;20.92;;
82248;SDS011;71851;49.092;18.918;2023-12-20T08:55:04;35.03;;;21.02;;
82248;SDS011;71851;49.092;18.918;2023-12-20T08:58:04;30.23;;;19.58;;
82248;SDS011;71851;49.092;18.918;2023-12-20T09:01:07;32.80;;;20.35;;
82248;SDS011;71851;49.092;18.918;2023-12-20T09:04:08;31.42;;;19.45;;
82248;SDS011;71851;49.092;18.918;2023-12-20T09:07:27;31.80;;;20.98;;
82248;SDS011;71851;49.092;18.918;2023-12-20T09:10:29;30.95;;;18.45;;
82248;SDS011;71851;49.092;18.918;2023-12-20T09:13:30;41.08;;;24.67;;
82248;SDS011;71851;49.092;18.918;2023-12-20T09:16:31;40.08;;;24.23;;
82248;SDS011;71851;49.092;18.918;2023-12-20T09:19:32;35.90;;;21.77;;
82248;SDS011;71851;49.092;18.918;2023-12-20T09:22:32;44.22;;;27.05;;
82248;SDS011;71851;49.092;18.918;2023-12-20T09:25:33;42.58;;;26.02;;
82248;SDS011;71851;49.092;18.918;2023-12-20T09:28:34;32.45;;;19.42;;
82248;SDS011;71851;49.092;18.918;2023-12-20T09:31:37;38.40;;;22.83;;
82248;SDS011;71851;49.092;18.918;2023-12-20T09:34:37;33.90;;;21.33;;
82248;SDS011;71851;49.092;18.918;2023-12-20T09:37:37;31.15;;;19.42;;
82248;SDS011;71851;49.092;18.918;2023-12-20T09:40:38;41.40;;;18.77;;
82248;SDS011;71851;49.092;18.918;2023-12-20T09:43:41;34.90;;;20.60;;
82248;SDS011;71851;49.092;18.918;2023-12-20T09:46:43;34.03;;;19.48;;
82248;SDS011;71851;49.092;18.918;2023-12-20T09:49:44;33.55;;;20.45;;
82248;SDS011;71851;49.092;18.918;2023-12-20T09:52:46;34.53;;;21.85;;
82248;SDS011;71851;49.092;18.918;2023-12-20T09:55:50;34.33;;;21.50;;
82248;SDS011;71851;49.092;18.918;2023-12-20T09:58:51;28.95;;;20.55;;
82248;SDS011;71851;49.092;18.918;2023-12-20T10:01:51;34.58;;;22.27;;
82248;SDS011;71851;49.092;18.918;2023-12-20T10:04:56;35.92;;;22.92;;
82248;SDS011;71851;49.092;18.918;2023-12-20T10:07:58;26.63;;;16.95;;
82248;SDS011;71851;49.092;18.918;2023-12-20T10:10:59;24.33;;;14.90;;
82248;SDS011;71851;49.092;18.918;2023-12-20T10:14:02;16.10;;;11.63;;
82248;SDS011;71851;49.092;18.918;2023-12-20T10:17:04;25.83;;;16.02;;
82248;SDS011;71851;49.092;18.918;2023-12-20T10:20:05;21.40;;;13.20;;
82248;SDS011;71851;49.092;18.918;2023-12-20T10:23:10;22.52;;;14.65;;
82248;SDS011;71851;49.092;18.918;2023-12-20T10:26:18;20.42;;;13.02;;
82248;SDS011;71851;49.092;18.918;2023-12-20T10:29:23;21.90;;;14.30;;
82248;SDS011;71851;49.092;18.918;2023-12-20T10:32:24;16.00;;;10.68;;
82248;SDS011;71851;49.092;18.918;2023-12-20T10:35:26;17.13;;;11.80;;
82248;SDS011;71851;49.092;18.918;2023-12-20T10:38:26;20.05;;;13.50;;
82248;SDS011;71851;49.092;18.918;2023-12-20T10:44:31;14.77;;;9.75;;
82248;SDS011;71851;49.092;18.918;2023-12-20T10:47:31;21.48;;;13.43;;
82248;SDS011;71851;49.092;18.918;2023-12-20T10:50:33;19.52;;;13.27;;
82248;SDS011;71851;49.092;18.918;2023-12-20T10:53:38;13.27;;;9.75;;
82248;SDS011;71851;49.092;18.918;2023-12-20T10:56:42;15.02;;;11.35;;
82248;SDS011;71851;49.092;18.918;2023-12-20T10:59:43;20.85;;;12.23;;
82248;SDS011;71851;49.092;18.918;2023-12-20T11:02:46;21.65;;;12.82;;
82248;SDS011;71851;49.092;18.918;2023-12-20T11:05:51;20.80;;;11.85;;
82248;SDS011;71851;49.092;18.918;2023-12-20T11:15:53;21.55;;;14.40;;
82248;SDS011;71851;49.092;18.918;2023-12-20T11:18:54;21.05;;;12.93;;
82248;SDS011;71851;49.092;18.918;2023-12-20T11:21:54;19.73;;;13.55;;
82248;SDS011;71851;49.092;18.918;2023-12-20T11:25:04;20.70;;;12.27;;
82248;SDS011;71851;49.092;18.918;2023-12-20T11:28:09;21.00;;;11.90;;
82248;SDS011;71851;49.092;18.918;2023-12-20T11:31:12;20.77;;;12.13;;
82248;SDS011;71851;49.092;18.918;2023-12-20T11:34:17;21.30;;;13.73;;
82248;SDS011;71851;49.092;18.918;2023-12-20T11:37:20;21.70;;;13.18;;
82248;SDS011;71851;49.092;18.918;2023-12-20T11:40:22;21.27;;;13.57;;
82248;SDS011;71851;49.092;18.918;2023-12-20T11:43:30;22.00;;;13.63;;
82248;SDS011;71851;49.092;18.918;2023-12-20T11:46:36;19.35;;;13.23;;
82248;SDS011;71851;49.092;18.918;2023-12-20T11:49:37;20.02;;;13.70;;
82248;SDS011;71851;49.092;18.918;2023-12-20T11:52:37;24.73;;;14.70;;
82248;SDS011;71851;49.092;18.918;2023-12-20T11:55:38;22.75;;;13.43;;
82248;SDS011;71851;49.092;18.918;2023-12-20T11:58:38;21.23;;;12.90;;
82248;SDS011;71851;49.092;18.918;2023-12-20T12:01:39;32.10;;;17.58;;
82248;SDS011;71851;49.092;18.918;2023-12-20T12:04:43;22.52;;;13.82;;
82248;SDS011;71851;49.092;18.918;2023-12-20T12:07:43;20.75;;;12.48;;
82248;SDS011;71851;49.092;18.918;2023-12-20T12:10:43;26.23;;;13.90;;
82248;SDS011;71851;49.092;18.918;2023-12-20T12:13:44;25.60;;;14.10;;
82248;SDS011;71851;49.092;18.918;2023-12-20T12:16:46;21.02;;;12.75;;
82248;SDS011;71851;49.092;18.918;2023-12-20T12:19:46;23.58;;;13.00;;
82248;SDS011;71851;49.092;18.918;2023-12-20T12:22:57;19.63;;;12.30;;
82248;SDS011;71851;49.092;18.918;2023-12-20T12:26:03;25.27;;;14.20;;
82248;SDS011;71851;49.092;18.918;2023-12-20T12:29:06;21.63;;;12.85;;
82248;SDS011;71851;49.092;18.918;2023-12-20T12:32:08;20.92;;;14.85;;
82248;SDS011;71851;49.092;18.918;2023-12-20T12:35:09;66.50;;;30.58;;
82248;SDS011;71851;49.092;18.918;2023-12-20T12:38:10;54.72;;;28.90;;
82248;SDS011;71851;49.092;18.918;2023-12-20T12:41:12;44.28;;;25.45;;
82248;SDS011;71851;49.092;18.918;2023-12-20T12:44:13;53.25;;;28.80;;
82248;SDS011;71851;49.092;18.918;2023-12-20T12:47:13;47.95;;;27.17;;
82248;SDS011;71851;49.092;18.918;2023-12-20T12:50:14;34.80;;;18.65;;
82248;SDS011;71851;49.092;18.918;2023-12-20T12:53:14;27.10;;;15.77;;
82248;SDS011;71851;49.092;18.918;2023-12-20T12:56:15;24.80;;;14.27;;
82248;SDS011;71851;49.092;18.918;2023-12-20T12:59:16;15.93;;;10.68;;
82248;SDS011;71851;49.092;18.918;2023-12-20T13:02:16;13.65;;;7.93;;
82248;SDS011;71851;49.092;18.918;2023-12-20T13:05:17;7.95;;;5.53;;
82248;SDS011;71851;49.092;18.918;2023-12-20T13:08:17;4.60;;;3.33;;
82248;SDS011;71851;49.092;18.918;2023-12-20T13:11:18;5.72;;;3.17;;
82248;SDS011;71851;49.092;18.918;2023-12-20T13:14:18;6.25;;;3.35;;
82248;SDS011;71851;49.092;18.918;2023-12-20T13:17:20;4.55;;;3.08;;
82248;SDS011;71851;49.092;18.918;2023-12-20T13:20:20;4.60;;;3.67;;
82248;SDS011;71851;49.092;18.918;2023-12-20T13:23:27;4.97;;;3.22;;
82248;SDS011;71851;49.092;18.918;2023-12-20T13:26:27;5.10;;;3.85;;
82248;SDS011;71851;49.092;18.918;2023-12-20T13:29:27;4.45;;;3.25;;
82248;SDS011;71851;49.092;18.918;2023-12-20T13:32:28;5.30;;;3.70;;
82248;SDS011;71851;49.092;18.918;2023-12-20T13:35:28;5.07;;;3.50;;
82248;SDS011;71851;49.092;18.918;2023-12-20T13:38:29;5.20;;;3.60;;
82248;SDS011;71851;49.092;18.918;2023-12-20T13:41:29;6.18;;;4.10;;
82248;SDS011;71851;49.092;18.918;2023-12-20T13:44:30;6.15;;;4.32;;
82248;SDS011;71851;49.092;18.918;2023-12-20T13:47:31;6.20;;;4.40;;
82248;SDS011;71851;49.092;18.918;2023-12-20T13:50:32;4.93;;;3.53;;
82248;SDS011;71851;49.092;18.918;2023-12-20T13:53:32;5.72;;;4.05;;
82248;SDS011;71851;49.092;18.918;2023-12-20T13:56:32;6.45;;;3.95;;
82248;SDS011;71851;49.092;18.918;2023-12-20T13:59:34;5.93;;;3.88;;
82248;SDS011;71851;49.092;18.918;2023-12-20T14:02:36;7.65;;;5.28;;
82248;SDS011;71851;49.092;18.918;2023-12-20T14:05:36;7.18;;;4.82;;
82248;SDS011;71851;49.092;18.918;2023-12-20T14:08:37;6.50;;;4.60;;
82248;SDS011;71851;49.092;18.918;2023-12-20T14:11:38;5.85;;;4.10;;
82248;SDS011;71851;49.092;18.918;2023-12-20T14:14:41;6.47;;;4.47;;
82248;SDS011;71851;49.092;18.918;2023-12-20T14:17:41;5.72;;;3.97;;
82248;SDS011;71851;49.092;18.918;2023-12-20T14:20:42;5.90;;;3.97;;
82248;SDS011;71851;49.092;18.918;2023-12-20T14:23:42;6.10;;;4.60;;
82248;SDS011;71851;49.092;18.918;2023-12-20T14:26:43;8.75;;;5.20;;
82248;SDS011;71851;49.092;18.918;2023-12-20T14:29:44;17.60;;;10.80;;
82248;SDS011;71851;49.092;18.918;2023-12-20T14:32:44;20.67;;;13.48;;
82248;SDS011;71851;49.092;18.918;2023-12-20T14:35:44;15.35;;;9.10;;
82248;SDS011;71851;49.092;18.918;2023-12-20T14:38:45;24.30;;;12.48;;
82248;SDS011;71851;49.092;18.918;2023-12-20T14:41:47;23.88;;;11.73;;
82248;SDS011;71851;49.092;18.918;2023-12-20T14:44:47;24.15;;;11.82;;
82248;SDS011;71851;49.092;18.918;2023-12-20T14:47:47;12.02;;;6.45;;
82248;SDS011;71851;49.092;18.918;2023-12-20T14:50:48;20.58;;;11.30;;
82248;SDS011;71851;49.092;18.918;2023-12-20T14:53:50;11.00;;;6.35;;
82248;SDS011;71851;49.092;18.918;2023-12-20T14:56:50;7.68;;;5.55;;
82248;SDS011;71851;49.092;18.918;2023-12-20T14:59:51;7.93;;;5.78;;
82248;SDS011;71851;49.092;18.918;2023-12-20T15:02:52;11.88;;;7.70;;
82248;SDS011;71851;49.092;18.918;2023-12-20T15:05:54;11.32;;;6.32;;
82248;SDS011;71851;49.092;18.918;2023-12-20T15:08:54;14.65;;;8.07;;
82248;SDS011;71851;49.092;18.918;2023-12-20T15:11:57;10.48;;;7.32;;
82248;SDS011;71851;49.092;18.918;2023-12-20T15:14:58;10.70;;;6.47;;
82248;SDS011;71851;49.092;18.918;2023-12-20T15:17:58;12.10;;;8.00;;
82248;SDS011;71851;49.092;18.918;2023-12-20T15:21:03;12.23;;;8.05;;
82248;SDS011;71851;49.092;18.918;2023-12-20T15:24:05;13.80;;;8.23;;
82248;SDS011;71851;49.092;18.918;2023-12-20T15:27:13;11.32;;;7.25;;
82248;SDS011;71851;49.092;18.918;2023-12-20T15:30:13;20.73;;;13.43;;
82248;SDS011;71851;49.092;18.918;2023-12-20T15:33:14;41.92;;;24.95;;
82248;SDS011;71851;49.092;18.918;2023-12-20T15:36:15;65.32;;;30.42;;
82248;SDS011;71851;49.092;18.918;2023-12-20T15:39:15;20.27;;;10.90;;
82248;SDS011;71851;49.092;18.918;2023-12-20T15:42:16;113.70;;;41.58;;
82248;SDS011;71851;49.092;18.918;2023-12-20T15:45:16;88.25;;;40.80;;
82248;SDS011;71851;49.092;18.918;2023-12-20T15:48:17;38.00;;;19.17;;
82248;SDS011;71851;49.092;18.918;2023-12-20T15:51:20;37.90;;;18.05;;
82248;SDS011;71851;49.092;18.918;2023-12-20T15:54:22;94.90;;;40.72;;
82248;SDS011;71851;49.092;18.918;2023-12-20T15:57:22;16.63;;;9.50;;
82248;SDS011;71851;49.092;18.918;2023-12-20T16:00:22;42.33;;;20.85;;
82248;SDS011;71851;49.092;18.918;2023-12-20T16:03:23;15.07;;;9.88;;
82248;SDS011;71851;49.092;18.918;2023-12-20T16:06:23;54.75;;;27.52;;
82248;SDS011;71851;49.092;18.918;2023-12-20T16:09:25;65.38;;;32.05;;
82248;SDS011;71851;49.092;18.918;2023-12-20T16:12:26;70.97;;;35.03;;
82248;SDS011;71851;49.092;18.918;2023-12-20T16:15:27;56.65;;;26.52;;
82248;SDS011;71851;49.092;18.918;2023-12-20T16:18:28;17.30;;;9.85;;
82248;SDS011;71851;49.092;18.918;2023-12-20T16:21:29;29.15;;;14.30;;
82248;SDS011;71851;49.092;18.918;2023-12-20T16:24:29;12.43;;;6.95;;
82248;SDS011;71851;49.092;18.918;2023-12-20T16:27:32;26.85;;;14.38;;
82248;SDS011;71851;49.092;18.918;2023-12-20T16:30:33;31.10;;;16.23;;
82248;SDS011;71851;49.092;18.918;2023-12-20T16:33:33;16.02;;;9.65;;
82248;SDS011;71851;49.092;18.918;2023-12-20T16:36:50;12.82;;;7.95;;
82248;SDS011;71851;49.092;18.918;2023-12-20T16:39:52;12.38;;;8.10;;
82248;SDS011;71851;49.092;18.918;2023-12-20T16:42:54;19.23;;;10.27;;
82248;SDS011;71851;49.092;18.918;2023-12-20T16:45:58;29.77;;;16.30;;
82248;SDS011;71851;49.092;18.918;2023-12-20T16:48:58;102.25;;;41.45;;
82248;SDS011;71851;49.092;18.918;2023-12-20T16:51:59;150.20;;;54.40;;
82248;SDS011;71851;49.092;18.918;2023-12-20T16:55:03;170.65;;;64.20;;
82248;SDS011;71851;49.092;18.918;2023-12-20T16:58:04;63.17;;;27.90;;
82248;SDS011;71851;49.092;18.918;2023-12-20T17:01:05;48.05;;;22.38;;
82248;SDS011;71851;49.092;18.918;2023-12-20T17:04:09;24.52;;;12.70;;
82248;SDS011;71851;49.092;18.918;2023-12-20T17:07:13;24.15;;;13.45;;
82248;SDS011;71851;49.092;18.918;2023-12-20T17:10:13;26.33;;;14.20;;
82248;SDS011;71851;49.092;18.918;2023-12-20T17:13:14;24.23;;;13.25;;
82248;SDS011;71851;49.092;18.918;2023-12-20T17:16:16;21.08;;;13.00;;
82248;SDS011;71851;49.092;18.918;2023-12-20T17:19:16;15.27;;;9.93;;
82248;SDS011;71851;49.092;18.918;2023-12-20T17:22:17;9.10;;;5.80;;
82248;SDS011;71851;49.092;18.918;2023-12-20T17:25:18;14.00;;;9.75;;
82248;SDS011;71851;49.092;18.918;2023-12-20T17:28:18;40.88;;;18.48;;
82248;SDS011;71851;49.092;18.918;2023-12-20T17:31:19;18.45;;;10.50;;
82248;SDS011;71851;49.092;18.918;2023-12-20T17:34:19;19.42;;;10.30;;
82248;SDS011;71851;49.092;18.918;2023-12-20T17:37:20;20.83;;;12.52;;
82248;SDS011;71851;49.092;18.918;2023-12-20T17:40:20;18.48;;;10.27;;